sensor_id;sensor_type;location;lat;lon;timestamp;temperature;humidity
46652;DHT22;32377;52.182;5.398;2023-04-20T00:00:06;7.40;96.40
46652;DHT22;32377;52.182;5.398;2023-04-20T00:02:36;7.30;96.90
46652;DHT22;32377;52.182;5.398;2023-04-20T00:05:04;7.40;97.10
46652;DHT22;32377;52.182;5.398;2023-04-20T00:07:29;7.40;97.40
46652;DHT22;32377;52.182;5.398;2023-04-20T00:09:56;7.30;97.50
46652;DHT22;32377;52.182;5.398;2023-04-20T00:12:21;7.20;98.00
46652;DHT22;32377;52.182;5.398;2023-04-20T00:14:47;7.20;98.30
46652;DHT22;32377;52.182;5.398;2023-04-20T00:17:12;7.10;98.80
46652;DHT22;32377;52.182;5.398;2023-04-20T00:19:38;7.10;99.00
46652;DHT22;32377;52.182;5.398;2023-04-20T00:22:04;7.00;99.10
46652;DHT22;32377;52.182;5.398;2023-04-20T00:24:29;7.00;99.20
46652;DHT22;32377;52.182;5.398;2023-04-20T00:26:55;7.00;99.50
46652;DHT22;32377;52.182;5.398;2023-04-20T00:29:21;7.00;99.30
46652;DHT22;32377;52.182;5.398;2023-04-20T00:31:46;6.90;99.50
46652;DHT22;32377;52.182;5.398;2023-04-20T00:34:12;6.90;99.60
46652;DHT22;32377;52.182;5.398;2023-04-20T00:36:38;6.90;99.70
46652;DHT22;32377;52.182;5.398;2023-04-20T00:39:03;6.80;99.70
46652;DHT22;32377;52.182;5.398;2023-04-20T00:41:30;6.80;99.80
46652;DHT22;32377;52.182;5.398;2023-04-20T00:43:56;6.80;99.80
46652;DHT22;32377;52.182;5.398;2023-04-20T00:46:21;6.80;99.90
46652;DHT22;32377;52.182;5.398;2023-04-20T00:48:49;6.80;99.90
46652;DHT22;32377;52.182;5.398;2023-04-20T00:51:16;6.70;99.90
46652;DHT22;32377;52.182;5.398;2023-04-20T00:53:42;6.70;99.90
46652;DHT22;32377;52.182;5.398;2023-04-20T00:56:09;6.70;99.90
46652;DHT22;32377;52.182;5.398;2023-04-20T00:58:36;6.70;99.90
46652;DHT22;32377;52.182;5.398;2023-04-20T01:01:02;6.60;99.90
46652;DHT22;32377;52.182;5.398;2023-04-20T01:03:27;6.60;99.90
46652;DHT22;32377;52.182;5.398;2023-04-20T01:05:53;6.60;99.90
46652;DHT22;32377;52.182;5.398;2023-04-20T01:08:19;6.70;99.90
46652;DHT22;32377;52.182;5.398;2023-04-20T01:10:44;6.70;99.90
46652;DHT22;32377;52.182;5.398;2023-04-20T01:13:10;6.80;99.90
46652;DHT22;32377;52.182;5.398;2023-04-20T01:15:36;6.80;99.90
46652;DHT22;32377;52.182;5.398;2023-04-20T01:18:02;6.90;99.90
46652;DHT22;32377;52.182;5.398;2023-04-20T01:20:27;6.90;99.90
46652;DHT22;32377;52.182;5.398;2023-04-20T01:22:53;6.90;99.90
46652;DHT22;32377;52.182;5.398;2023-04-20T01:25:19;6.80;99.90
46652;DHT22;32377;52.182;5.398;2023-04-20T01:27:45;6.80;99.90
46652;DHT22;32377;52.182;5.398;2023-04-20T01:30:11;6.80;99.90
46652;DHT22;32377;52.182;5.398;2023-04-20T01:32:38;6.80;99.90
46652;DHT22;32377;52.182;5.398;2023-04-20T01:35:04;6.70;99.90
46652;DHT22;32377;52.182;5.398;2023-04-20T01:37:30;6.70;99.90
46652;DHT22;32377;52.182;5.398;2023-04-20T01:39:56;6.70;99.90
46652;DHT22;32377;52.182;5.398;2023-04-20T01:42:22;6.70;99.90
46652;DHT22;32377;52.182;5.398;2023-04-20T01:44:47;6.70;99.90
46652;DHT22;32377;52.182;5.398;2023-04-20T01:47:13;6.60;99.90
46652;DHT22;32377;52.182;5.398;2023-04-20T01:49:39;6.60;99.90
46652;DHT22;32377;52.182;5.398;2023-04-20T01:52:05;6.70;99.90
46652;DHT22;32377;52.182;5.398;2023-04-20T01:54:31;6.60;99.90
46652;DHT22;32377;52.182;5.398;2023-04-20T01:56:56;6.70;99.90
46652;DHT22;32377;52.182;5.398;2023-04-20T01:59:22;6.70;99.90
46652;DHT22;32377;52.182;5.398;2023-04-20T02:01:48;6.80;99.90
46652;DHT22;32377;52.182;5.398;2023-04-20T02:04:13;6.80;99.90
46652;DHT22;32377;52.182;5.398;2023-04-20T02:06:39;6.90;99.90
46652;DHT22;32377;52.182;5.398;2023-04-20T02:09:05;7.00;99.90
46652;DHT22;32377;52.182;5.398;2023-04-20T02:11:31;7.10;99.90
46652;DHT22;32377;52.182;5.398;2023-04-20T02:13:56;7.20;99.90
46652;DHT22;32377;52.182;5.398;2023-04-20T02:16:22;7.20;99.90
46652;DHT22;32377;52.182;5.398;2023-04-20T02:18:48;7.30;99.90
46652;DHT22;32377;52.182;5.398;2023-04-20T02:21:14;7.40;99.90
46652;DHT22;32377;52.182;5.398;2023-04-20T02:23:39;7.40;99.90
46652;DHT22;32377;52.182;5.398;2023-04-20T02:26:05;7.50;99.90
46652;DHT22;32377;52.182;5.398;2023-04-20T02:28:31;7.50;99.90
46652;DHT22;32377;52.182;5.398;2023-04-20T02:30:56;7.50;99.90
46652;DHT22;32377;52.182;5.398;2023-04-20T02:33:22;7.60;99.90
46652;DHT22;32377;52.182;5.398;2023-04-20T02:35:48;7.50;99.90
46652;DHT22;32377;52.182;5.398;2023-04-20T02:38:13;7.50;99.90
46652;DHT22;32377;52.182;5.398;2023-04-20T02:40:39;7.50;99.90
46652;DHT22;32377;52.182;5.398;2023-04-20T02:43:05;7.60;99.90
46652;DHT22;32377;52.182;5.398;2023-04-20T02:45:31;7.60;99.90
46652;DHT22;32377;52.182;5.398;2023-04-20T02:47:57;7.70;99.90
46652;DHT22;32377;52.182;5.398;2023-04-20T02:50:23;7.70;99.90
46652;DHT22;32377;52.182;5.398;2023-04-20T02:52:48;7.80;99.90
46652;DHT22;32377;52.182;5.398;2023-04-20T02:55:14;7.80;99.90
46652;DHT22;32377;52.182;5.398;2023-04-20T02:57:39;7.90;99.90
46652;DHT22;32377;52.182;5.398;2023-04-20T03:00:05;7.90;99.90
46652;DHT22;32377;52.182;5.398;2023-04-20T03:02:33;8.00;99.90
46652;DHT22;32377;52.182;5.398;2023-04-20T03:04:58;8.10;99.90
46652;DHT22;32377;52.182;5.398;2023-04-20T03:07:24;8.10;99.90
46652;DHT22;32377;52.182;5.398;2023-04-20T03:09:50;8.10;99.90
46652;DHT22;32377;52.182;5.398;2023-04-20T03:12:16;8.10;99.90
46652;DHT22;32377;52.182;5.398;2023-04-20T03:14:42;8.20;99.90
46652;DHT22;32377;52.182;5.398;2023-04-20T03:17:08;8.20;99.90
46652;DHT22;32377;52.182;5.398;2023-04-20T03:19:34;8.20;99.90
46652;DHT22;32377;52.182;5.398;2023-04-20T03:22:01;8.20;99.90
46652;DHT22;32377;52.182;5.398;2023-04-20T03:24:26;8.20;99.90
46652;DHT22;32377;52.182;5.398;2023-04-20T03:26:52;8.20;99.90
46652;DHT22;32377;52.182;5.398;2023-04-20T03:29:17;8.20;99.90
46652;DHT22;32377;52.182;5.398;2023-04-20T03:31:43;8.20;99.90
46652;DHT22;32377;52.182;5.398;2023-04-20T03:34:09;8.20;99.90
46652;DHT22;32377;52.182;5.398;2023-04-20T03:36:35;8.20;99.90
46652;DHT22;32377;52.182;5.398;2023-04-20T03:39:01;8.20;99.90
46652;DHT22;32377;52.182;5.398;2023-04-20T03:41:26;8.20;99.90
46652;DHT22;32377;52.182;5.398;2023-04-20T03:43:52;8.20;99.90
46652;DHT22;32377;52.182;5.398;2023-04-20T03:46:17;8.20;99.90
46652;DHT22;32377;52.182;5.398;2023-04-20T03:48:43;8.20;99.90
46652;DHT22;32377;52.182;5.398;2023-04-20T03:51:08;8.20;99.90
46652;DHT22;32377;52.182;5.398;2023-04-20T03:53:34;8.30;99.90
46652;DHT22;32377;52.182;5.398;2023-04-20T03:59:19;8.30;99.90
46652;DHT22;32377;52.182;5.398;2023-04-20T04:01:45;8.30;99.90
46652;DHT22;32377;52.182;5.398;2023-04-20T04:04:11;8.30;99.90
46652;DHT22;32377;52.182;5.398;2023-04-20T04:06:36;8.20;99.90
46652;DHT22;32377;52.182;5.398;2023-04-20T04:09:02;8.30;99.90
46652;DHT22;32377;52.182;5.398;2023-04-20T04:11:28;8.30;99.90
46652;DHT22;32377;52.182;5.398;2023-04-20T04:13:56;8.30;99.90
46652;DHT22;32377;52.182;5.398;2023-04-20T04:16:21;8.30;99.90
46652;DHT22;32377;52.182;5.398;2023-04-20T04:18:47;8.30;99.90
46652;DHT22;32377;52.182;5.398;2023-04-20T04:21:13;8.30;99.90
46652;DHT22;32377;52.182;5.398;2023-04-20T04:23:38;8.30;99.90
46652;DHT22;32377;52.182;5.398;2023-04-20T04:26:06;8.30;99.90
46652;DHT22;32377;52.182;5.398;2023-04-20T04:28:32;8.30;99.90
46652;DHT22;32377;52.182;5.398;2023-04-20T04:30:58;8.30;99.90
46652;DHT22;32377;52.182;5.398;2023-04-20T04:33:26;8.30;99.90
46652;DHT22;32377;52.182;5.398;2023-04-20T04:35:51;8.30;99.90
46652;DHT22;32377;52.182;5.398;2023-04-20T04:38:18;8.30;99.90
46652;DHT22;32377;52.182;5.398;2023-04-20T04:40:43;8.30;99.90
46652;DHT22;32377;52.182;5.398;2023-04-20T04:43:10;8.40;99.90
46652;DHT22;32377;52.182;5.398;2023-04-20T04:45:39;8.40;99.90
46652;DHT22;32377;52.182;5.398;2023-04-20T04:48:06;8.40;99.90
46652;DHT22;32377;52.182;5.398;2023-04-20T04:50:32;8.40;99.90
46652;DHT22;32377;52.182;5.398;2023-04-20T04:52:58;8.40;99.90
46652;DHT22;32377;52.182;5.398;2023-04-20T04:55:23;8.40;99.90
46652;DHT22;32377;52.182;5.398;2023-04-20T04:57:49;8.40;99.90
46652;DHT22;32377;52.182;5.398;2023-04-20T05:00:15;8.40;99.90
46652;DHT22;32377;52.182;5.398;2023-04-20T05:02:41;8.40;99.90
46652;DHT22;32377;52.182;5.398;2023-04-20T05:05:07;8.30;99.90
46652;DHT22;32377;52.182;5.398;2023-04-20T05:07:33;8.30;99.90
46652;DHT22;32377;52.182;5.398;2023-04-20T05:09:58;8.30;99.90
46652;DHT22;32377;52.182;5.398;2023-04-20T05:12:24;8.30;99.90
46652;DHT22;32377;52.182;5.398;2023-04-20T05:14:51;8.30;99.90
46652;DHT22;32377;52.182;5.398;2023-04-20T05:17:16;8.30;99.90
46652;DHT22;32377;52.182;5.398;2023-04-20T05:19:42;8.30;99.90
46652;DHT22;32377;52.182;5.398;2023-04-20T05:22:08;8.30;99.90
46652;DHT22;32377;52.182;5.398;2023-04-20T05:24:33;8.30;99.90
46652;DHT22;32377;52.182;5.398;2023-04-20T05:26:59;8.30;99.90
46652;DHT22;32377;52.182;5.398;2023-04-20T05:29:25;8.30;99.90
46652;DHT22;32377;52.182;5.398;2023-04-20T05:31:51;8.30;99.90
46652;DHT22;32377;52.182;5.398;2023-04-20T05:34:17;8.40;99.90
46652;DHT22;32377;52.182;5.398;2023-04-20T05:36:42;8.40;99.90
46652;DHT22;32377;52.182;5.398;2023-04-20T05:39:08;8.40;99.90
46652;DHT22;32377;52.182;5.398;2023-04-20T05:41:34;8.40;99.90
46652;DHT22;32377;52.182;5.398;2023-04-20T05:44:00;8.40;99.90
46652;DHT22;32377;52.182;5.398;2023-04-20T05:46:26;8.40;99.90
46652;DHT22;32377;52.182;5.398;2023-04-20T05:48:53;8.40;99.90
46652;DHT22;32377;52.182;5.398;2023-04-20T05:51:19;8.40;99.90
46652;DHT22;32377;52.182;5.398;2023-04-20T05:53:46;8.40;99.90
46652;DHT22;32377;52.182;5.398;2023-04-20T05:56:11;8.50;99.90
46652;DHT22;32377;52.182;5.398;2023-04-20T05:58:39;8.50;99.90
46652;DHT22;32377;52.182;5.398;2023-04-20T06:01:05;8.50;99.90
46652;DHT22;32377;52.182;5.398;2023-04-20T06:03:31;8.50;99.90
46652;DHT22;32377;52.182;5.398;2023-04-20T06:05:57;8.50;99.90
46652;DHT22;32377;52.182;5.398;2023-04-20T06:08:23;8.60;99.90
46652;DHT22;32377;52.182;5.398;2023-04-20T06:10:53;8.60;99.90
46652;DHT22;32377;52.182;5.398;2023-04-20T06:13:19;8.60;99.90
46652;DHT22;32377;52.182;5.398;2023-04-20T06:15:45;8.60;99.90
46652;DHT22;32377;52.182;5.398;2023-04-20T06:18:10;8.70;99.90
46652;DHT22;32377;52.182;5.398;2023-04-20T06:20:36;8.60;99.90
46652;DHT22;32377;52.182;5.398;2023-04-20T06:23:03;8.70;99.90
46652;DHT22;32377;52.182;5.398;2023-04-20T06:25:29;8.60;99.90
46652;DHT22;32377;52.182;5.398;2023-04-20T06:27:55;8.60;99.90
46652;DHT22;32377;52.182;5.398;2023-04-20T06:30:21;8.60;99.90
46652;DHT22;32377;52.182;5.398;2023-04-20T06:32:46;8.50;99.90
46652;DHT22;32377;52.182;5.398;2023-04-20T06:35:12;8.50;99.90
46652;DHT22;32377;52.182;5.398;2023-04-20T06:37:38;8.50;99.90
46652;DHT22;32377;52.182;5.398;2023-04-20T06:40:05;8.30;99.90
46652;DHT22;32377;52.182;5.398;2023-04-20T06:42:32;8.20;99.90
46652;DHT22;32377;52.182;5.398;2023-04-20T06:44:58;8.20;99.90
46652;DHT22;32377;52.182;5.398;2023-04-20T06:47:24;8.00;99.90
46652;DHT22;32377;52.182;5.398;2023-04-20T06:49:59;7.90;99.90
46652;DHT22;32377;52.182;5.398;2023-04-20T06:52:26;7.70;99.90
46652;DHT22;32377;52.182;5.398;2023-04-20T06:54:51;7.50;99.90
46652;DHT22;32377;52.182;5.398;2023-04-20T06:57:17;7.20;99.90
46652;DHT22;32377;52.182;5.398;2023-04-20T06:59:43;7.10;99.90
46652;DHT22;32377;52.182;5.398;2023-04-20T07:02:08;7.00;99.90
46652;DHT22;32377;52.182;5.398;2023-04-20T07:04:34;6.90;99.90
46652;DHT22;32377;52.182;5.398;2023-04-20T07:06:59;6.90;99.90
46652;DHT22;32377;52.182;5.398;2023-04-20T07:09:25;6.90;99.90
46652;DHT22;32377;52.182;5.398;2023-04-20T07:11:51;6.80;99.90
46652;DHT22;32377;52.182;5.398;2023-04-20T07:14:17;6.80;99.90
46652;DHT22;32377;52.182;5.398;2023-04-20T07:16:43;6.90;99.90
46652;DHT22;32377;52.182;5.398;2023-04-20T07:19:08;6.90;99.90
46652;DHT22;32377;52.182;5.398;2023-04-20T07:21:34;7.00;99.90
46652;DHT22;32377;52.182;5.398;2023-04-20T07:24:00;7.00;99.90
46652;DHT22;32377;52.182;5.398;2023-04-20T07:26:26;6.90;99.90
46652;DHT22;32377;52.182;5.398;2023-04-20T07:28:52;6.80;99.90
46652;DHT22;32377;52.182;5.398;2023-04-20T07:31:17;6.90;99.90
46652;DHT22;32377;52.182;5.398;2023-04-20T07:33:43;7.00;99.90
46652;DHT22;32377;52.182;5.398;2023-04-20T07:36:09;7.00;99.90
46652;DHT22;32377;52.182;5.398;2023-04-20T07:38:35;7.10;99.90
46652;DHT22;32377;52.182;5.398;2023-04-20T07:41:01;7.20;99.90
46652;DHT22;32377;52.182;5.398;2023-04-20T07:43:27;7.00;99.90
46652;DHT22;32377;52.182;5.398;2023-04-20T07:45:53;7.00;99.90
46652;DHT22;32377;52.182;5.398;2023-04-20T07:48:19;7.00;99.90
46652;DHT22;32377;52.182;5.398;2023-04-20T07:50:45;6.90;99.90
46652;DHT22;32377;52.182;5.398;2023-04-20T07:53:11;6.80;99.90
46652;DHT22;32377;52.182;5.398;2023-04-20T07:55:37;6.80;99.90
46652;DHT22;32377;52.182;5.398;2023-04-20T07:58:02;6.80;99.90
46652;DHT22;32377;52.182;5.398;2023-04-20T08:00:28;6.80;99.90
46652;DHT22;32377;52.182;5.398;2023-04-20T08:02:54;6.80;99.90
46652;DHT22;32377;52.182;5.398;2023-04-20T08:05:20;6.80;99.90
46652;DHT22;32377;52.182;5.398;2023-04-20T08:07:45;6.80;99.90
46652;DHT22;32377;52.182;5.398;2023-04-20T08:10:11;6.90;99.90
46652;DHT22;32377;52.182;5.398;2023-04-20T08:12:37;7.00;99.90
46652;DHT22;32377;52.182;5.398;2023-04-20T08:15:04;6.90;99.90
46652;DHT22;32377;52.182;5.398;2023-04-20T08:17:31;7.00;99.90
46652;DHT22;32377;52.182;5.398;2023-04-20T08:19:57;7.10;99.90
46652;DHT22;32377;52.182;5.398;2023-04-20T08:22:23;7.20;99.90
46652;DHT22;32377;52.182;5.398;2023-04-20T08:24:51;7.20;99.90
46652;DHT22;32377;52.182;5.398;2023-04-20T08:27:17;7.20;99.90
46652;DHT22;32377;52.182;5.398;2023-04-20T08:29:42;7.30;99.90
46652;DHT22;32377;52.182;5.398;2023-04-20T08:32:08;7.30;99.90
46652;DHT22;32377;52.182;5.398;2023-04-20T08:34:35;7.20;99.90
46652;DHT22;32377;52.182;5.398;2023-04-20T08:37:01;7.30;99.90
46652;DHT22;32377;52.182;5.398;2023-04-20T08:39:27;7.40;99.90
46652;DHT22;32377;52.182;5.398;2023-04-20T08:41:53;7.60;99.90
46652;DHT22;32377;52.182;5.398;2023-04-20T08:44:20;7.70;99.90
46652;DHT22;32377;52.182;5.398;2023-04-20T08:46:47;8.00;99.90
46652;DHT22;32377;52.182;5.398;2023-04-20T08:49:15;8.00;99.90
46652;DHT22;32377;52.182;5.398;2023-04-20T08:51:42;7.90;99.90
46652;DHT22;32377;52.182;5.398;2023-04-20T08:54:10;8.00;99.90
46652;DHT22;32377;52.182;5.398;2023-04-20T08:56:38;7.90;99.90
46652;DHT22;32377;52.182;5.398;2023-04-20T08:59:04;7.90;99.90
46652;DHT22;32377;52.182;5.398;2023-04-20T09:01:31;7.90;99.90
46652;DHT22;32377;52.182;5.398;2023-04-20T09:03:58;8.00;99.90
46652;DHT22;32377;52.182;5.398;2023-04-20T09:06:24;8.20;99.90
46652;DHT22;32377;52.182;5.398;2023-04-20T09:08:49;8.10;99.90
46652;DHT22;32377;52.182;5.398;2023-04-20T09:11:26;8.20;99.90
46652;DHT22;32377;52.182;5.398;2023-04-20T09:16:24;8.20;99.90
46652;DHT22;32377;52.182;5.398;2023-04-20T09:18:54;8.10;99.90
46652;DHT22;32377;52.182;5.398;2023-04-20T09:21:21;8.20;99.90
46652;DHT22;32377;52.182;5.398;2023-04-20T09:24:01;8.40;99.90
46652;DHT22;32377;52.182;5.398;2023-04-20T09:26:30;8.60;99.90
46652;DHT22;32377;52.182;5.398;2023-04-20T09:28:55;8.80;99.90
46652;DHT22;32377;52.182;5.398;2023-04-20T09:31:22;9.10;99.90
46652;DHT22;32377;52.182;5.398;2023-04-20T09:34:03;9.20;99.90
46652;DHT22;32377;52.182;5.398;2023-04-20T09:36:40;9.40;99.90
46652;DHT22;32377;52.182;5.398;2023-04-20T09:39:16;9.10;99.90
46652;DHT22;32377;52.182;5.398;2023-04-20T09:41:43;9.10;99.90
46652;DHT22;32377;52.182;5.398;2023-04-20T09:44:09;9.10;99.90
46652;DHT22;32377;52.182;5.398;2023-04-20T09:46:37;8.90;99.90
46652;DHT22;32377;52.182;5.398;2023-04-20T09:49:05;8.80;99.90
46652;DHT22;32377;52.182;5.398;2023-04-20T09:51:33;8.80;99.90
46652;DHT22;32377;52.182;5.398;2023-04-20T09:54:01;8.70;99.90
46652;DHT22;32377;52.182;5.398;2023-04-20T09:59:20;8.80;99.90
46652;DHT22;32377;52.182;5.398;2023-04-20T10:01:46;8.90;99.90
46652;DHT22;32377;52.182;5.398;2023-04-20T10:04:12;9.00;99.90
46652;DHT22;32377;52.182;5.398;2023-04-20T10:06:39;8.90;99.90
46652;DHT22;32377;52.182;5.398;2023-04-20T10:09:07;8.90;99.90
46652;DHT22;32377;52.182;5.398;2023-04-20T10:11:37;9.00;99.90
46652;DHT22;32377;52.182;5.398;2023-04-20T10:14:15;9.10;99.90
46652;DHT22;32377;52.182;5.398;2023-04-20T10:16:42;9.20;99.90
46652;DHT22;32377;52.182;5.398;2023-04-20T10:19:08;9.20;99.90
46652;DHT22;32377;52.182;5.398;2023-04-20T10:21:47;9.20;99.90
46652;DHT22;32377;52.182;5.398;2023-04-20T10:24:13;9.40;99.90
46652;DHT22;32377;52.182;5.398;2023-04-20T10:26:43;9.40;99.90
46652;DHT22;32377;52.182;5.398;2023-04-20T10:29:23;9.30;99.90
46652;DHT22;32377;52.182;5.398;2023-04-20T10:31:50;9.40;99.90
46652;DHT22;32377;52.182;5.398;2023-04-20T10:34:16;9.60;99.90
46652;DHT22;32377;52.182;5.398;2023-04-20T10:36:43;9.90;99.90
46652;DHT22;32377;52.182;5.398;2023-04-20T10:39:17;10.00;99.90
46652;DHT22;32377;52.182;5.398;2023-04-20T10:41:56;10.00;99.90
46652;DHT22;32377;52.182;5.398;2023-04-20T10:44:28;9.80;99.90
46652;DHT22;32377;52.182;5.398;2023-04-20T10:46:55;9.70;99.90
46652;DHT22;32377;52.182;5.398;2023-04-20T10:49:28;9.90;99.90
46652;DHT22;32377;52.182;5.398;2023-04-20T10:51:54;9.90;99.90
46652;DHT22;32377;52.182;5.398;2023-04-20T10:54:20;9.80;99.90
46652;DHT22;32377;52.182;5.398;2023-04-20T10:56:51;9.80;99.90
46652;DHT22;32377;52.182;5.398;2023-04-20T10:59:22;9.80;99.90
46652;DHT22;32377;52.182;5.398;2023-04-20T11:01:49;9.80;99.90
46652;DHT22;32377;52.182;5.398;2023-04-20T11:04:15;9.80;99.90
46652;DHT22;32377;52.182;5.398;2023-04-20T11:06:43;9.70;99.90
46652;DHT22;32377;52.182;5.398;2023-04-20T11:09:23;9.70;99.90
46652;DHT22;32377;52.182;5.398;2023-04-20T11:12:01;10.10;99.90
46652;DHT22;32377;52.182;5.398;2023-04-20T11:14:27;10.40;99.90
46652;DHT22;32377;52.182;5.398;2023-04-20T11:16:53;10.80;99.90
46652;DHT22;32377;52.182;5.398;2023-04-20T11:19:28;11.10;99.90
46652;DHT22;32377;52.182;5.398;2023-04-20T11:21:54;11.30;99.90
46652;DHT22;32377;52.182;5.398;2023-04-20T11:24:21;11.20;99.90
46652;DHT22;32377;52.182;5.398;2023-04-20T11:26:48;11.20;99.90
46652;DHT22;32377;52.182;5.398;2023-04-20T11:29:35;11.10;99.90
46652;DHT22;32377;52.182;5.398;2023-04-20T11:32:09;11.00;99.90
46652;DHT22;32377;52.182;5.398;2023-04-20T11:34:36;10.90;99.90
46652;DHT22;32377;52.182;5.398;2023-04-20T11:37:06;10.80;99.90
46652;DHT22;32377;52.182;5.398;2023-04-20T11:39:32;10.70;99.90
46652;DHT22;32377;52.182;5.398;2023-04-20T11:41:58;10.70;99.90
46652;DHT22;32377;52.182;5.398;2023-04-20T11:44:25;10.50;99.90
46652;DHT22;32377;52.182;5.398;2023-04-20T11:46:52;10.60;99.90
46652;DHT22;32377;52.182;5.398;2023-04-20T11:49:26;10.50;99.90
46652;DHT22;32377;52.182;5.398;2023-04-20T11:51:53;10.70;99.90
46652;DHT22;32377;52.182;5.398;2023-04-20T11:54:18;10.80;99.90
46652;DHT22;32377;52.182;5.398;2023-04-20T11:56:44;10.90;99.90
46652;DHT22;32377;52.182;5.398;2023-04-20T11:59:11;10.80;99.90
46652;DHT22;32377;52.182;5.398;2023-04-20T12:01:38;10.80;99.90
46652;DHT22;32377;52.182;5.398;2023-04-20T12:04:04;10.70;99.90
46652;DHT22;32377;52.182;5.398;2023-04-20T12:06:30;10.80;99.90
46652;DHT22;32377;52.182;5.398;2023-04-20T12:09:00;10.80;99.90
46652;DHT22;32377;52.182;5.398;2023-04-20T12:11:25;10.70;99.90
46652;DHT22;32377;52.182;5.398;2023-04-20T12:13:51;10.70;99.90
46652;DHT22;32377;52.182;5.398;2023-04-20T12:16:19;10.70;99.90
46652;DHT22;32377;52.182;5.398;2023-04-20T12:18:44;10.60;99.90
46652;DHT22;32377;52.182;5.398;2023-04-20T12:21:10;10.60;99.90
46652;DHT22;32377;52.182;5.398;2023-04-20T12:23:35;10.50;99.90
46652;DHT22;32377;52.182;5.398;2023-04-20T12:26:04;10.50;99.90
46652;DHT22;32377;52.182;5.398;2023-04-20T12:28:30;10.40;99.90
46652;DHT22;32377;52.182;5.398;2023-04-20T12:30:56;10.40;99.90
46652;DHT22;32377;52.182;5.398;2023-04-20T12:33:22;10.50;99.90
46652;DHT22;32377;52.182;5.398;2023-04-20T12:35:47;10.60;99.90
46652;DHT22;32377;52.182;5.398;2023-04-20T12:38:13;10.70;99.90
46652;DHT22;32377;52.182;5.398;2023-04-20T12:40:39;10.70;99.90
46652;DHT22;32377;52.182;5.398;2023-04-20T12:43:04;10.80;99.90
46652;DHT22;32377;52.182;5.398;2023-04-20T12:45:30;10.90;99.90
46652;DHT22;32377;52.182;5.398;2023-04-20T12:47:56;11.10;99.90
46652;DHT22;32377;52.182;5.398;2023-04-20T12:50:23;11.30;99.90
46652;DHT22;32377;52.182;5.398;2023-04-20T12:52:48;11.50;99.90
46652;DHT22;32377;52.182;5.398;2023-04-20T12:55:16;11.70;99.90
46652;DHT22;32377;52.182;5.398;2023-04-20T12:57:42;11.80;99.90
46652;DHT22;32377;52.182;5.398;2023-04-20T13:00:08;11.90;99.90
46652;DHT22;32377;52.182;5.398;2023-04-20T13:02:34;11.90;99.90
46652;DHT22;32377;52.182;5.398;2023-04-20T13:04:59;11.80;99.90
46652;DHT22;32377;52.182;5.398;2023-04-20T13:07:25;11.60;99.90
46652;DHT22;32377;52.182;5.398;2023-04-20T13:09:52;11.40;99.90
46652;DHT22;32377;52.182;5.398;2023-04-20T13:12:17;11.30;99.90
46652;DHT22;32377;52.182;5.398;2023-04-20T13:14:43;11.20;99.90
46652;DHT22;32377;52.182;5.398;2023-04-20T13:17:09;11.10;99.90
46652;DHT22;32377;52.182;5.398;2023-04-20T13:19:34;11.10;99.90
46652;DHT22;32377;52.182;5.398;2023-04-20T13:22:00;11.20;99.90
46652;DHT22;32377;52.182;5.398;2023-04-20T13:24:26;11.40;99.90
46652;DHT22;32377;52.182;5.398;2023-04-20T13:26:54;11.50;99.90
46652;DHT22;32377;52.182;5.398;2023-04-20T13:29:23;11.70;99.90
46652;DHT22;32377;52.182;5.398;2023-04-20T13:31:49;11.70;99.90
46652;DHT22;32377;52.182;5.398;2023-04-20T13:34:14;11.60;99.90
46652;DHT22;32377;52.182;5.398;2023-04-20T13:36:40;11.70;99.90
46652;DHT22;32377;52.182;5.398;2023-04-20T13:39:07;11.60;99.90
46652;DHT22;32377;52.182;5.398;2023-04-20T13:41:34;11.60;99.90
46652;DHT22;32377;52.182;5.398;2023-04-20T13:44:00;11.70;99.90
46652;DHT22;32377;52.182;5.398;2023-04-20T13:46:26;12.00;99.90
46652;DHT22;32377;52.182;5.398;2023-04-20T13:48:52;12.20;99.90
46652;DHT22;32377;52.182;5.398;2023-04-20T13:51:18;12.20;99.90
46652;DHT22;32377;52.182;5.398;2023-04-20T13:53:44;12.10;99.90
46652;DHT22;32377;52.182;5.398;2023-04-20T13:56:12;12.10;99.90
46652;DHT22;32377;52.182;5.398;2023-04-20T13:58:37;12.00;99.90
46652;DHT22;32377;52.182;5.398;2023-04-20T14:01:07;11.90;99.90
46652;DHT22;32377;52.182;5.398;2023-04-20T14:03:33;12.10;99.90
46652;DHT22;32377;52.182;5.398;2023-04-20T14:05:59;12.20;99.90
46652;DHT22;32377;52.182;5.398;2023-04-20T14:08:24;12.00;99.90
46652;DHT22;32377;52.182;5.398;2023-04-20T14:10:50;12.00;99.90
46652;DHT22;32377;52.182;5.398;2023-04-20T14:13:16;12.00;99.90
46652;DHT22;32377;52.182;5.398;2023-04-20T14:15:41;12.00;99.90
46652;DHT22;32377;52.182;5.398;2023-04-20T14:18:07;12.10;99.90
46652;DHT22;32377;52.182;5.398;2023-04-20T14:20:33;12.20;99.90
46652;DHT22;32377;52.182;5.398;2023-04-20T14:22:59;12.20;99.90
46652;DHT22;32377;52.182;5.398;2023-04-20T14:25:24;12.20;99.90
46652;DHT22;32377;52.182;5.398;2023-04-20T14:27:50;12.40;99.90
46652;DHT22;32377;52.182;5.398;2023-04-20T14:30:16;12.40;99.90
46652;DHT22;32377;52.182;5.398;2023-04-20T14:32:58;12.30;99.90
46652;DHT22;32377;52.182;5.398;2023-04-20T14:35:26;12.40;99.90
46652;DHT22;32377;52.182;5.398;2023-04-20T14:37:51;12.40;99.90
46652;DHT22;32377;52.182;5.398;2023-04-20T14:40:18;12.40;99.90
46652;DHT22;32377;52.182;5.398;2023-04-20T14:42:45;12.40;99.90
46652;DHT22;32377;52.182;5.398;2023-04-20T14:45:11;12.50;99.90
46652;DHT22;32377;52.182;5.398;2023-04-20T14:47:37;12.50;99.90
46652;DHT22;32377;52.182;5.398;2023-04-20T14:50:04;12.40;99.90
46652;DHT22;32377;52.182;5.398;2023-04-20T14:52:30;12.30;99.90
46652;DHT22;32377;52.182;5.398;2023-04-20T14:54:55;12.30;99.90
46652;DHT22;32377;52.182;5.398;2023-04-20T14:57:21;12.40;99.90
46652;DHT22;32377;52.182;5.398;2023-04-20T14:59:47;12.50;99.90
46652;DHT22;32377;52.182;5.398;2023-04-20T15:02:12;12.60;99.90
46652;DHT22;32377;52.182;5.398;2023-04-20T15:04:38;12.70;99.90
46652;DHT22;32377;52.182;5.398;2023-04-20T15:07:04;12.50;99.90
46652;DHT22;32377;52.182;5.398;2023-04-20T15:09:30;12.50;99.90
46652;DHT22;32377;52.182;5.398;2023-04-20T15:11:57;12.60;99.90
46652;DHT22;32377;52.182;5.398;2023-04-20T15:14:24;12.60;99.90
46652;DHT22;32377;52.182;5.398;2023-04-20T15:16:52;12.50;99.90
46652;DHT22;32377;52.182;5.398;2023-04-20T15:19:19;12.50;99.90
46652;DHT22;32377;52.182;5.398;2023-04-20T15:21:45;12.50;99.90
46652;DHT22;32377;52.182;5.398;2023-04-20T15:24:11;12.40;99.90
46652;DHT22;32377;52.182;5.398;2023-04-20T15:26:37;12.60;99.90
46652;DHT22;32377;52.182;5.398;2023-04-20T15:29:02;12.70;99.90
46652;DHT22;32377;52.182;5.398;2023-04-20T15:31:28;12.80;99.90
46652;DHT22;32377;52.182;5.398;2023-04-20T15:33:56;12.90;99.90
46652;DHT22;32377;52.182;5.398;2023-04-20T15:36:23;13.00;99.90
46652;DHT22;32377;52.182;5.398;2023-04-20T15:38:48;12.90;99.90
46652;DHT22;32377;52.182;5.398;2023-04-20T15:41:14;12.80;99.90
46652;DHT22;32377;52.182;5.398;2023-04-20T15:43:41;12.80;99.90
46652;DHT22;32377;52.182;5.398;2023-04-20T15:46:08;12.70;99.90